createdAt,value
2023-05-13T04:15:41.584Z,13.80
2023-05-13T04:16:41.613Z,13.90
2023-05-13T04:17:41.635Z,12.20
2023-05-13T04:18:41.592Z,14.90
2023-05-13T04:19:41.554Z,13.90
2023-05-13T04:20:41.540Z,13.30
2023-05-13T04:21:41.511Z,13.40
2023-05-13T04:22:41.490Z,14.30
2023-05-13T04:23:41.489Z,14.50
2023-05-13T04:24:41.465Z,11.90
2023-05-13T04:25:41.458Z,12.30
2023-05-13T04:26:41.442Z,13.70
2023-05-13T04:27:41.433Z,13.90
2023-05-13T04:28:41.432Z,14.00
2023-05-13T04:29:41.404Z,11.70
2023-05-13T04:30:41.386Z,13.70
2023-05-13T04:31:41.442Z,13.90
2023-05-13T04:32:41.431Z,13.00
2023-05-13T04:33:41.370Z,11.30
2023-05-13T04:34:41.329Z,15.40
2023-05-13T04:35:41.322Z,13.70
2023-05-13T04:36:41.307Z,11.60
2023-05-13T04:37:41.310Z,13.60
2023-05-13T04:38:41.284Z,13.80
2023-05-13T04:39:41.269Z,12.40
2023-05-13T04:40:41.261Z,11.50
2023-05-13T04:41:41.274Z,13.60
2023-05-13T04:42:41.241Z,14.80
2023-05-13T04:43:41.217Z,10.00
2023-05-13T04:44:41.235Z,12.30
2023-05-13T04:45:41.196Z,12.10
2023-05-13T04:46:41.303Z,13.80
2023-05-13T04:47:41.251Z,13.30
2023-05-13T04:48:41.146Z,16.00
2023-05-13T04:49:41.150Z,13.40
2023-05-13T04:50:41.125Z,12.50
2023-05-13T04:51:41.132Z,15.00
2023-05-13T04:52:41.096Z,13.70
2023-05-13T04:53:41.091Z,15.50
2023-05-13T04:54:41.074Z,13.10
2023-05-13T04:55:41.076Z,13.00
2023-05-13T04:56:41.075Z,12.00
2023-05-13T04:57:41.044Z,13.30
2023-05-13T04:58:41.021Z,12.20
2023-05-13T04:59:41.035Z,12.60
2023-05-13T05:00:41.002Z,13.80
2023-05-13T05:01:41.081Z,11.40
2023-05-13T05:02:40.995Z,13.40
2023-05-13T05:03:41.003Z,11.00
2023-05-13T05:04:40.953Z,11.40
2023-05-13T05:05:40.943Z,12.40
2023-05-13T05:06:40.918Z,13.70
2023-05-13T05:07:40.915Z,13.30
2023-05-13T05:08:40.894Z,12.20
2023-05-13T05:09:40.887Z,11.10
2023-05-13T05:10:40.886Z,11.30
2023-05-13T05:11:40.857Z,14.20
2023-05-13T05:12:40.836Z,13.90
2023-05-13T05:13:40.829Z,13.90
2023-05-13T05:14:40.837Z,10.60
2023-05-13T05:15:40.815Z,10.90
2023-05-13T05:16:40.797Z,14.40
2023-05-13T05:17:40.893Z,12.30
2023-05-13T05:18:40.848Z,10.60
2023-05-13T05:19:40.790Z,11.40
2023-05-13T05:20:40.728Z,12.60
2023-05-13T05:21:40.725Z,11.90
2023-05-13T05:22:40.708Z,13.10
2023-05-13T05:23:40.702Z,13.30
2023-05-13T05:24:40.705Z,12.30
2023-05-13T05:25:40.691Z,10.70
2023-05-13T05:26:42.289Z,10.10
2023-05-13T05:27:40.667Z,10.40
2023-05-13T05:28:40.665Z,9.40
2023-05-13T05:29:40.643Z,10.80
2023-05-13T05:30:40.619Z,14.50
2023-05-13T05:31:40.658Z,9.40
2023-05-13T05:32:40.607Z,13.90
2023-05-13T05:33:40.581Z,10.90
2023-05-13T05:34:40.574Z,13.60
2023-05-13T05:35:40.545Z,11.20
2023-05-13T05:36:40.531Z,9.40
2023-05-13T05:37:40.525Z,14.70
2023-05-13T05:38:40.505Z,9.50
2023-05-13T05:39:40.494Z,9.80
2023-05-13T05:40:40.490Z,9.60
2023-05-13T05:41:40.466Z,13.60
2023-05-13T05:42:40.453Z,12.30
2023-05-13T05:43:40.467Z,11.50
2023-05-13T05:44:40.431Z,13.60
2023-05-13T05:45:40.490Z,11.60
2023-05-13T05:46:40.394Z,11.70
2023-05-13T05:47:40.452Z,10.80
2023-05-13T05:48:40.398Z,8.90
2023-05-13T05:49:40.368Z,10.90
2023-05-13T05:50:40.340Z,10.50
2023-05-13T05:51:40.336Z,9.10
2023-05-13T05:52:40.329Z,12.40
2023-05-13T05:53:40.311Z,9.50
2023-05-13T05:54:40.303Z,11.70
2023-05-13T05:55:40.288Z,15.00
2023-05-13T05:56:40.264Z,9.70
2023-05-13T05:57:40.280Z,12.80
2023-05-13T05:58:40.236Z,9.80
2023-05-13T05:59:40.234Z,9.60
2023-05-13T06:00:40.212Z,11.40
2023-05-13T06:01:40.212Z,11.50
2023-05-13T06:02:40.264Z,11.50
2023-05-13T06:03:40.314Z,10.40
2023-05-13T06:04:40.183Z,10.30
2023-05-13T06:05:40.151Z,9.00
2023-05-13T06:06:40.159Z,9.60
2023-05-13T06:07:40.167Z,10.20
2023-05-13T06:08:40.113Z,11.60
2023-05-13T06:09:40.102Z,10.60
2023-05-13T06:10:40.084Z,9.60
2023-05-13T06:11:40.102Z,11.90
2023-05-13T06:12:40.051Z,11.80
2023-05-13T06:13:40.048Z,9.90
2023-05-13T06:14:40.032Z,10.00
2023-05-13T06:15:40.098Z,9.00
2023-05-13T06:16:40.029Z,11.00
2023-05-13T06:17:40.039Z,8.60
2023-05-13T06:18:39.996Z,10.40
2023-05-13T06:19:39.967Z,8.10
2023-05-13T06:20:39.971Z,11.00
2023-05-13T06:21:39.944Z,11.40
2023-05-13T06:22:39.924Z,10.70
2023-05-13T06:23:39.944Z,10.20
2023-05-13T06:24:39.907Z,9.40
2023-05-13T06:25:39.899Z,10.80
2023-05-13T06:26:39.876Z,10.00
2023-05-13T06:27:39.869Z,8.90
2023-05-13T06:28:39.850Z,10.30
2023-05-13T06:29:39.856Z,10.40
2023-05-13T06:30:39.846Z,10.50
2023-05-13T06:31:39.837Z,10.20
2023-05-13T06:32:44.859Z,12.40
2023-05-13T06:33:40.784Z,10.70
2023-05-13T06:34:39.774Z,8.10
2023-05-13T06:35:39.760Z,9.20
2023-05-13T06:36:39.749Z,9.50
2023-05-13T06:37:39.735Z,10.70
2023-05-13T06:38:39.710Z,9.40
2023-05-13T06:39:39.718Z,7.40
2023-05-13T06:40:39.686Z,8.10
2023-05-13T06:41:39.684Z,7.70
2023-05-13T06:42:39.667Z,8.70
2023-05-13T06:43:39.667Z,9.20
2023-05-13T06:44:39.646Z,8.20
2023-05-13T06:45:39.630Z,10.60
2023-05-13T06:46:39.620Z,9.40
2023-05-13T06:47:39.652Z,11.00
2023-05-13T06:48:39.591Z,10.00
2023-05-13T06:49:39.570Z,9.70
2023-05-13T06:50:39.556Z,8.20
2023-05-13T06:51:39.543Z,9.40
2023-05-13T06:52:41.735Z,7.40
2023-05-13T06:53:39.539Z,7.80
2023-05-13T06:54:39.516Z,8.00
2023-05-13T06:55:39.490Z,8.60
2023-05-13T06:56:39.476Z,11.50
2023-05-13T06:57:43.082Z,10.00
2023-05-13T06:58:39.465Z,9.00
2023-05-13T06:59:39.436Z,10.80
2023-05-13T07:00:39.495Z,10.50
2023-05-13T07:01:39.430Z,6.50
2023-05-13T07:02:39.449Z,9.50
2023-05-13T07:03:39.505Z,9.30
2023-05-13T07:04:39.375Z,9.90
2023-05-13T07:05:39.359Z,10.50
2023-05-13T07:06:39.342Z,10.30
2023-05-13T07:07:39.354Z,7.30
2023-05-13T07:08:39.327Z,11.50
2023-05-13T07:09:39.319Z,7.40
2023-05-13T07:10:39.299Z,9.70
2023-05-13T07:11:39.299Z,10.20
2023-05-13T07:12:39.286Z,8.20
2023-05-13T07:13:39.323Z,7.40
2023-05-13T07:14:39.237Z,9.30
2023-05-13T07:15:39.225Z,9.80
2023-05-13T07:16:39.270Z,8.50
2023-05-13T07:17:39.253Z,9.10
2023-05-13T07:18:39.232Z,8.50
2023-05-13T07:19:39.183Z,8.00
2023-05-13T07:20:39.170Z,8.80
2023-05-13T07:21:39.163Z,8.20
2023-05-13T07:22:39.139Z,7.10
2023-05-13T07:23:39.122Z,10.00
2023-05-13T07:24:39.110Z,8.50
2023-05-13T07:25:39.093Z,11.10
2023-05-13T07:26:39.100Z,10.10
2023-05-13T07:27:39.066Z,9.00
2023-05-13T07:28:39.061Z,7.90
2023-05-13T07:29:39.041Z,6.60
2023-05-13T07:30:39.063Z,8.40
2023-05-13T07:31:39.033Z,13.30
2023-05-13T07:32:39.045Z,8.60
2023-05-13T07:33:38.990Z,7.50
2023-05-13T07:34:38.992Z,9.50
2023-05-13T07:35:38.966Z,8.10
2023-05-13T07:36:38.963Z,10.00
2023-05-13T07:37:45.988Z,13.10
2023-05-13T07:38:38.930Z,15.30
2023-05-13T07:39:38.903Z,7.00
2023-05-13T07:40:38.925Z,8.90
2023-05-13T07:41:38.901Z,8.80
2023-05-13T07:42:38.881Z,7.10
2023-05-13T07:43:38.862Z,11.60
2023-05-13T07:44:38.866Z,9.80
2023-05-13T07:45:38.848Z,7.40
2023-05-13T07:46:38.887Z,8.70
2023-05-13T07:47:38.850Z,9.10
2023-05-13T07:48:38.811Z,9.00
2023-05-13T07:49:38.797Z,9.30
2023-05-13T07:50:38.776Z,7.30
2023-05-13T07:51:38.760Z,5.40
2023-05-13T07:52:38.749Z,5.70
2023-05-13T07:53:38.743Z,5.80
2023-05-13T07:54:38.740Z,6.00
2023-05-13T07:55:38.707Z,9.40
2023-05-13T07:56:38.704Z,7.70
2023-05-13T07:57:38.764Z,7.90
2023-05-13T07:58:38.677Z,6.90
2023-05-13T07:59:38.673Z,8.90
2023-05-13T08:00:38.646Z,6.40
2023-05-13T08:01:38.630Z,6.00
2023-05-13T08:02:38.780Z,6.20
2023-05-13T08:03:38.765Z,8.50
2023-05-13T08:04:38.647Z,7.60
2023-05-13T08:05:38.576Z,7.30
2023-05-13T08:06:39.633Z,7.90
2023-05-13T08:07:38.550Z,12.80
2023-05-13T08:08:38.587Z,5.90
2023-05-13T08:09:38.534Z,8.80
2023-05-13T08:10:38.520Z,7.50
2023-05-13T08:11:38.510Z,7.80
2023-05-13T08:12:38.508Z,8.20
2023-05-13T08:13:38.487Z,7.10
2023-05-13T08:14:38.478Z,7.30
2023-05-13T08:15:38.448Z,8.30
2023-05-13T08:16:38.461Z,5.90
2023-05-13T08:17:38.472Z,7.60
2023-05-13T08:18:38.449Z,12.40
2023-05-13T08:19:38.412Z,9.50
2023-05-13T08:20:38.393Z,10.90
2023-05-13T08:21:38.369Z,6.40
2023-05-13T08:22:38.369Z,7.20
2023-05-13T08:23:45.457Z,8.70
2023-05-13T08:24:39.330Z,9.60
2023-05-13T08:25:38.315Z,8.30
2023-05-13T08:26:38.309Z,8.60
2023-05-13T08:27:38.308Z,7.40
2023-05-13T08:28:38.283Z,7.80
2023-05-13T08:29:38.265Z,7.00
2023-05-13T08:30:38.260Z,8.30
2023-05-13T08:31:38.262Z,10.60
2023-05-13T08:32:38.299Z,7.50
2023-05-13T08:33:38.221Z,10.20
2023-05-13T08:34:38.205Z,7.50
2023-05-13T08:35:38.197Z,8.30
2023-05-13T08:36:38.195Z,8.00
2023-05-13T08:37:38.190Z,9.00
2023-05-13T08:38:38.156Z,6.60
2023-05-13T08:39:38.140Z,11.40
2023-05-13T08:40:38.141Z,8.30
2023-05-13T08:41:38.126Z,7.40
2023-05-13T08:42:38.101Z,7.10
2023-05-13T08:43:38.139Z,9.40
2023-05-13T08:44:38.069Z,6.00
2023-05-13T08:45:38.100Z,9.50
2023-05-13T08:46:38.125Z,5.10
2023-05-13T08:47:38.140Z,8.80
2023-05-13T08:48:38.026Z,7.00
2023-05-13T08:49:38.015Z,7.60
2023-05-13T08:50:38.009Z,6.30
2023-05-13T08:51:37.994Z,6.50
2023-05-13T08:52:37.967Z,5.90
2023-05-13T08:53:37.963Z,5.60
2023-05-13T08:54:37.944Z,7.10
2023-05-13T08:55:37.941Z,7.40
2023-05-13T08:56:37.919Z,5.90
2023-05-13T08:57:37.917Z,6.10
2023-05-13T08:58:37.894Z,7.10
2023-05-13T08:59:37.886Z,7.50
2023-05-13T09:00:37.878Z,9.20
2023-05-13T09:01:37.909Z,6.60
2023-05-13T09:02:37.901Z,6.50
2023-05-13T09:03:37.843Z,5.40
2023-05-13T09:04:37.905Z,5.30
2023-05-13T09:05:38.891Z,6.00
2023-05-13T09:06:37.808Z,5.80
2023-05-13T09:07:37.778Z,5.80
2023-05-13T09:08:37.771Z,6.60
2023-05-13T09:09:37.775Z,5.10
2023-05-13T09:10:37.731Z,5.80
2023-05-13T09:11:37.728Z,5.10
2023-05-13T09:12:37.712Z,7.40
2023-05-13T09:13:37.705Z,7.80
2023-05-13T09:14:37.705Z,5.70
2023-05-13T09:15:37.688Z,6.50
2023-05-13T09:16:37.780Z,3.90
2023-05-13T09:17:37.686Z,3.90
2023-05-13T09:18:37.864Z,6.20
2023-05-13T09:19:37.803Z,5.80
2023-05-13T09:20:37.622Z,4.90
2023-05-13T09:21:37.599Z,4.90
2023-05-13T09:22:37.581Z,6.50
2023-05-13T09:23:37.586Z,6.40
2023-05-13T09:24:37.580Z,4.70
2023-05-13T09:25:37.552Z,6.50
2023-05-13T09:26:37.539Z,10.80
2023-05-13T09:27:37.517Z,5.90
2023-05-13T09:28:37.506Z,6.40
2023-05-13T09:29:37.489Z,9.20
2023-05-13T09:30:37.475Z,9.20
2023-05-13T09:31:37.518Z,7.10
2023-05-13T09:32:37.490Z,7.20
2023-05-13T09:33:37.451Z,6.20
2023-05-13T09:34:37.429Z,6.30
2023-05-13T09:35:37.413Z,6.70
2023-05-13T09:36:37.406Z,5.30
2023-05-13T09:37:37.398Z,5.90
2023-05-13T09:38:37.383Z,7.60
2023-05-13T09:39:37.366Z,4.80
2023-05-13T09:40:37.350Z,10.20
2023-05-13T09:41:37.329Z,6.70
2023-05-13T09:42:37.330Z,5.40
2023-05-13T09:43:37.309Z,4.80
2023-05-13T09:44:37.293Z,7.30
2023-05-13T09:45:37.285Z,4.80
2023-05-13T09:46:37.271Z,5.30
2023-05-13T09:47:37.356Z,7.10
2023-05-13T09:48:37.240Z,5.90
2023-05-13T09:49:37.242Z,5.80
2023-05-13T09:50:37.213Z,8.20
2023-05-13T09:51:37.226Z,4.80
2023-05-13T09:52:37.209Z,6.40
2023-05-13T09:53:37.186Z,5.10
2023-05-13T09:54:37.167Z,8.10
2023-05-13T09:55:37.165Z,5.90
2023-05-13T09:56:37.161Z,6.20
2023-05-13T09:57:37.154Z,5.40
2023-05-13T09:58:37.118Z,6.40
2023-05-13T09:59:37.117Z,3.60
2023-05-13T10:01:37.152Z,5.50
2023-05-13T10:02:37.124Z,6.30
2023-05-13T10:03:37.220Z,5.20
2023-05-13T10:04:37.047Z,4.30
2023-05-13T10:05:37.048Z,3.30
2023-05-13T10:06:37.032Z,5.80
2023-05-13T10:07:37.006Z,5.30
2023-05-13T10:08:36.994Z,4.40
2023-05-13T10:09:36.998Z,4.40
2023-05-13T10:10:36.986Z,7.50
2023-05-13T10:11:36.977Z,6.90
2023-05-13T10:12:36.950Z,6.40
2023-05-13T10:13:36.944Z,6.30
2023-05-13T10:14:36.943Z,5.40
2023-05-13T10:15:36.927Z,6.60
2023-05-13T10:16:36.991Z,6.80
2023-05-13T10:17:36.993Z,5.60
2023-05-13T10:18:36.948Z,7.70
2023-05-13T10:19:36.876Z,5.10
2023-05-13T10:20:36.854Z,8.40
2023-05-13T10:21:36.840Z,5.00
2023-05-13T10:22:36.831Z,5.30
2023-05-13T10:23:36.815Z,6.30
2023-05-13T10:24:38.608Z,6.10
2023-05-13T10:25:36.807Z,4.80
2023-05-13T10:26:36.777Z,3.90
2023-05-13T10:27:36.763Z,5.40
2023-05-13T10:28:36.744Z,4.90
2023-05-13T10:29:36.750Z,5.00
2023-05-13T10:30:36.727Z,4.50
2023-05-13T10:31:36.721Z,5.30
2023-05-13T10:32:36.714Z,6.30
2023-05-13T10:33:36.690Z,10.00
2023-05-13T10:34:36.674Z,6.30
2023-05-13T10:35:38.554Z,8.30
2023-05-13T10:36:36.644Z,6.90
2023-05-13T10:37:36.623Z,6.40
2023-05-13T10:38:36.624Z,3.30
2023-05-13T10:39:36.613Z,5.30
2023-05-13T10:40:36.579Z,5.30
2023-05-13T10:41:36.569Z,4.70
2023-05-13T10:42:36.558Z,5.90
2023-05-13T10:43:36.558Z,6.00
2023-05-13T10:44:36.536Z,5.30
2023-05-13T10:45:36.516Z,4.80
2023-05-13T10:46:36.540Z,6.10
2023-05-13T10:47:36.565Z,6.20
2023-05-13T10:48:36.526Z,4.70
2023-05-13T10:49:36.482Z,6.30
2023-05-13T10:50:36.458Z,5.50
2023-05-13T10:51:36.435Z,4.70
2023-05-13T10:52:36.433Z,5.90
2023-05-13T10:53:36.422Z,6.30
2023-05-13T10:54:36.404Z,4.80
2023-05-13T10:55:36.381Z,4.00
2023-05-13T10:56:36.373Z,4.30
2023-05-13T10:57:36.368Z,5.00
2023-05-13T10:58:36.344Z,6.90
2023-05-13T10:59:36.324Z,7.30
2023-05-13T11:00:36.324Z,5.50
2023-05-13T11:01:36.334Z,4.00
2023-05-13T11:02:36.368Z,4.40
2023-05-13T11:03:36.366Z,6.30
2023-05-13T11:04:36.269Z,4.90
2023-05-13T11:05:36.258Z,3.80
2023-05-13T11:06:36.264Z,4.20
2023-05-13T11:07:36.245Z,4.60
2023-05-13T11:08:36.223Z,5.60
2023-05-13T11:09:36.210Z,5.80
2023-05-13T11:10:36.200Z,3.80
2023-05-13T11:11:36.202Z,4.50
2023-05-13T11:12:36.178Z,6.40
2023-05-13T11:13:36.165Z,4.50
2023-05-13T11:14:36.149Z,5.70
2023-05-13T11:15:36.142Z,7.60
2023-05-13T11:16:36.282Z,5.30
2023-05-13T11:17:36.174Z,3.70
2023-05-13T11:18:36.147Z,5.60
2023-05-13T11:19:36.090Z,4.50
2023-05-13T11:20:49.011Z,3.70
2023-05-13T11:21:37.070Z,5.40
2023-05-13T11:22:36.050Z,7.60
2023-05-13T11:23:36.031Z,7.10
2023-05-13T11:24:36.021Z,6.20
2023-05-13T11:25:36.028Z,4.60
2023-05-13T11:26:35.999Z,6.80
2023-05-13T11:27:35.986Z,4.30
2023-05-13T11:28:35.974Z,4.20
2023-05-13T11:29:35.963Z,4.80
2023-05-13T11:30:35.957Z,5.20
2023-05-13T11:31:35.960Z,6.50
2023-05-13T11:32:35.949Z,3.10
2023-05-13T11:33:35.907Z,4.10
2023-05-13T11:34:35.911Z,5.40
2023-05-13T11:35:35.899Z,5.00
2023-05-13T11:36:35.873Z,3.70
2023-05-13T11:37:35.864Z,5.80
2023-05-13T11:38:35.849Z,5.10
2023-05-13T11:39:35.847Z,7.50
2023-05-13T11:40:35.826Z,4.90
2023-05-13T11:41:35.812Z,8.00
2023-05-13T11:42:35.808Z,7.10
2023-05-13T11:43:35.775Z,4.60
2023-05-13T11:44:35.789Z,5.70
2023-05-13T11:45:35.813Z,4.40
2023-05-13T11:46:35.752Z,5.80
2023-05-13T11:47:35.747Z,5.70
2023-05-13T11:48:35.732Z,3.90
2023-05-13T11:49:35.724Z,5.40
2023-05-13T11:50:35.695Z,6.70
2023-05-13T11:51:35.687Z,6.70
2023-05-13T11:52:35.671Z,4.70
2023-05-13T11:53:35.672Z,2.90
2023-05-13T11:54:35.649Z,3.10
2023-05-13T11:55:35.633Z,5.40
2023-05-13T11:56:35.620Z,3.70
2023-05-13T11:57:35.600Z,5.50
2023-05-13T11:58:35.604Z,6.20
2023-05-13T11:59:45.186Z,6.70
2023-05-13T12:00:36.571Z,5.00
2023-05-13T12:01:35.553Z,3.30
2023-05-13T12:02:35.684Z,6.90
2023-05-13T12:03:35.584Z,2.90
2023-05-13T12:04:35.537Z,4.70
2023-05-13T12:05:35.602Z,7.10
2023-05-13T12:06:35.494Z,4.50
2023-05-13T12:07:35.494Z,6.10
2023-05-13T12:08:35.475Z,5.10
2023-05-13T12:09:35.458Z,4.10
2023-05-13T12:10:35.474Z,6.30
2023-05-13T12:11:35.424Z,5.70
2023-05-13T12:12:35.437Z,4.10
2023-05-13T12:13:35.399Z,3.60
2023-05-13T12:14:35.393Z,3.90
2023-05-13T12:15:35.433Z,4.70
2023-05-13T12:16:35.414Z,3.70
2023-05-13T12:17:35.387Z,4.60
2023-05-13T12:18:35.404Z,6.30
2023-05-13T12:19:35.327Z,6.10
2023-05-13T12:20:35.317Z,6.50
2023-05-13T12:21:35.326Z,5.30
2023-05-13T12:22:35.539Z,4.70
2023-05-13T12:23:35.279Z,6.30
2023-05-13T12:24:35.268Z,6.50
2023-05-13T12:25:35.252Z,5.90
2023-05-13T12:26:35.262Z,8.20
2023-05-13T12:27:35.225Z,5.10
2023-05-13T12:28:35.222Z,5.30
2023-05-13T12:29:35.200Z,4.40
2023-05-13T12:30:35.201Z,6.80
2023-05-13T12:31:35.298Z,5.30
2023-05-13T12:32:35.183Z,3.50
2023-05-13T12:33:35.150Z,4.30
2023-05-13T12:34:35.154Z,4.60
2023-05-13T12:35:35.125Z,4.70
2023-05-13T12:36:35.134Z,4.90
2023-05-13T12:37:35.092Z,6.60
2023-05-13T12:38:35.092Z,4.60
2023-05-13T12:39:35.070Z,4.20
2023-05-13T12:40:35.080Z,4.00
2023-05-13T12:41:35.216Z,6.10
2023-05-13T12:42:35.040Z,4.10
2023-05-13T12:43:35.022Z,3.40
2023-05-13T12:44:35.031Z,6.90
2023-05-13T12:45:35.013Z,3.70
2023-05-13T12:46:35.144Z,5.50
2023-05-13T12:47:34.991Z,3.20
2023-05-13T12:48:34.955Z,5.40
2023-05-13T12:49:34.953Z,3.70
2023-05-13T12:50:34.939Z,5.10
2023-05-13T12:51:34.932Z,5.30
2023-05-13T12:52:34.906Z,5.80
2023-05-13T12:53:34.898Z,6.20
2023-05-13T12:54:34.893Z,5.00
2023-05-13T12:55:34.884Z,4.40
2023-05-13T12:56:34.873Z,3.90
2023-05-13T12:57:34.847Z,7.00
2023-05-13T12:58:34.834Z,6.00
2023-05-13T12:59:34.840Z,4.70
2023-05-13T13:00:34.924Z,3.20
2023-05-13T13:01:34.981Z,7.70
2023-05-13T13:02:34.845Z,3.40
2023-05-13T13:03:34.853Z,6.00
2023-05-13T13:04:34.767Z,4.70
2023-05-13T13:05:34.760Z,4.10
2023-05-13T13:06:34.735Z,5.20
2023-05-13T13:07:34.729Z,6.00
2023-05-13T13:08:34.723Z,4.60
2023-05-13T13:09:34.712Z,2.80
2023-05-13T13:10:34.683Z,3.00
2023-05-13T13:11:34.678Z,3.70
2023-05-13T13:12:34.658Z,5.10
2023-05-13T13:13:35.613Z,3.10
2023-05-13T13:14:34.631Z,5.60
2023-05-13T13:15:34.638Z,4.40
2023-05-13T13:16:34.684Z,3.40
2023-05-13T13:17:34.625Z,5.60
2023-05-13T13:18:34.645Z,5.10
2023-05-13T13:19:34.573Z,4.50
2023-05-13T13:20:34.553Z,11.50
2023-05-13T13:21:34.549Z,4.90
2023-05-13T13:22:34.544Z,5.20
2023-05-13T13:23:34.543Z,5.00
2023-05-13T13:24:34.513Z,9.50
2023-05-13T13:25:34.506Z,6.30
2023-05-13T13:26:34.488Z,3.70
2023-05-13T13:27:34.497Z,3.40
2023-05-13T13:28:34.462Z,3.70
2023-05-13T13:29:34.458Z,5.00
2023-05-13T13:30:34.443Z,3.80
2023-05-13T13:31:34.429Z,5.40
2023-05-13T13:32:34.433Z,5.70
2023-05-13T13:33:34.405Z,4.10
2023-05-13T13:34:34.384Z,5.50
2023-05-13T13:35:34.379Z,6.50
2023-05-13T13:36:34.364Z,4.10
2023-05-13T13:37:35.463Z,6.30
2023-05-13T13:38:41.392Z,4.40
2023-05-13T13:39:34.335Z,5.00
2023-05-13T13:40:34.315Z,4.40
2023-05-13T13:41:34.307Z,7.50
2023-05-13T13:42:44.152Z,7.00
2023-05-13T13:43:35.276Z,3.60
2023-05-13T13:44:34.260Z,4.40
2023-05-13T13:45:34.244Z,3.40
2023-05-13T13:46:34.283Z,7.30
2023-05-13T13:47:34.998Z,4.50
2023-05-13T13:48:34.208Z,5.00
2023-05-13T13:49:34.190Z,4.30
2023-05-13T13:50:34.194Z,6.80
2023-05-13T13:51:34.171Z,3.90
2023-05-13T13:52:34.158Z,4.50
2023-05-13T13:53:34.139Z,5.40
2023-05-13T13:54:34.131Z,5.70
2023-05-13T13:55:34.127Z,4.50
2023-05-13T13:56:34.107Z,3.90
2023-05-13T13:57:34.092Z,5.20
2023-05-13T13:58:34.087Z,4.70
2023-05-13T13:59:34.065Z,5.70
2023-05-13T14:00:34.081Z,5.70
2023-05-13T14:01:34.098Z,3.70
2023-05-13T14:02:34.121Z,8.30
2023-05-13T14:03:34.087Z,4.60
2023-05-13T14:04:35.406Z,3.90
2023-05-13T14:05:34.009Z,4.20
2023-05-13T14:06:33.989Z,4.60
2023-05-13T14:07:33.974Z,5.10
2023-05-13T14:08:33.955Z,5.30
2023-05-13T14:09:33.948Z,5.60
2023-05-13T14:10:33.930Z,3.90
2023-05-13T14:11:33.922Z,3.90
2023-05-13T14:12:33.917Z,5.60
2023-05-13T14:13:33.886Z,6.60
2023-05-13T14:14:33.895Z,5.70
2023-05-13T14:15:33.909Z,8.60
2023-05-13T14:16:33.854Z,5.70
2023-05-13T14:17:33.902Z,6.30
2023-05-13T14:18:33.893Z,3.10
2023-05-13T14:19:33.922Z,4.60
2023-05-13T14:20:33.816Z,4.40
2023-05-13T14:21:33.805Z,6.20
2023-05-13T14:22:33.779Z,5.60
2023-05-13T14:23:33.784Z,6.00
2023-05-13T14:24:33.761Z,4.10
2023-05-13T14:25:33.737Z,8.60
2023-05-13T14:26:33.743Z,4.20
2023-05-13T14:27:33.709Z,4.70
2023-05-13T14:28:33.715Z,4.70
2023-05-13T14:29:33.744Z,4.30
2023-05-13T14:30:33.676Z,5.60
2023-05-13T14:31:33.746Z,3.60
2023-05-13T14:32:33.684Z,3.60
2023-05-13T14:33:33.657Z,4.50
2023-05-13T14:34:33.640Z,3.10
2023-05-13T14:35:33.620Z,6.20
2023-05-13T14:36:33.617Z,3.60
2023-05-13T14:37:33.598Z,5.00
2023-05-13T14:38:33.713Z,4.50
2023-05-13T14:39:33.561Z,3.90
2023-05-13T14:40:33.564Z,6.10
2023-05-13T14:41:33.562Z,3.20
2023-05-13T14:42:33.552Z,5.50
2023-05-13T14:43:33.510Z,4.70
2023-05-13T14:44:33.517Z,6.60
2023-05-13T14:45:33.488Z,7.80
2023-05-13T14:46:33.524Z,4.80
2023-05-13T14:47:33.522Z,4.10
2023-05-13T14:48:33.462Z,9.80
2023-05-13T14:49:33.432Z,3.50
2023-05-13T14:50:33.434Z,4.30
2023-05-13T14:51:33.417Z,6.20
2023-05-13T14:52:33.410Z,4.40
2023-05-13T14:53:33.379Z,3.20
2023-05-13T14:54:33.384Z,2.70
2023-05-13T14:55:33.365Z,5.20
2023-05-13T14:56:33.357Z,4.80
2023-05-13T14:57:33.430Z,3.80
2023-05-13T14:58:33.326Z,4.00
2023-05-13T14:59:33.316Z,5.00
2023-05-13T15:00:33.331Z,5.60
2023-05-13T15:01:33.400Z,6.10
2023-05-13T15:02:33.421Z,3.80
2023-05-13T15:03:33.293Z,4.40
2023-05-13T15:04:33.256Z,5.80
2023-05-13T15:05:33.243Z,5.90
2023-05-13T15:06:33.248Z,8.10
2023-05-13T15:07:33.210Z,3.90
2023-05-13T15:08:33.204Z,4.60
2023-05-13T15:09:33.192Z,3.60
2023-05-13T15:10:33.187Z,5.30
2023-05-13T15:11:33.164Z,3.20
2023-05-13T15:12:33.150Z,6.20
2023-05-13T15:13:33.127Z,4.10
2023-05-13T15:14:33.115Z,4.50
2023-05-13T15:15:33.115Z,9.40
2023-05-13T15:16:33.142Z,4.60
2023-05-13T15:17:33.108Z,3.30
2023-05-13T15:18:33.110Z,6.70
2023-05-13T15:19:33.063Z,4.70
2023-05-13T15:20:33.066Z,2.90
2023-05-13T15:21:33.030Z,5.10
2023-05-13T15:22:34.192Z,10.10
2023-05-13T15:23:33.005Z,7.00
2023-05-13T15:24:33.001Z,7.40
2023-05-13T15:25:32.996Z,7.30
2023-05-13T15:26:32.961Z,6.70
2023-05-13T15:27:32.955Z,4.00
2023-05-13T15:28:32.947Z,4.20
2023-05-13T15:29:32.936Z,5.30
2023-05-13T15:30:32.956Z,5.60
2023-05-13T15:31:33.089Z,3.60
2023-05-13T15:32:32.968Z,5.20
2023-05-13T15:33:32.944Z,6.60
2023-05-13T15:34:32.887Z,7.30
2023-05-13T15:35:32.875Z,2.70
2023-05-13T15:36:32.852Z,3.90
2023-05-13T15:37:32.841Z,4.70
2023-05-13T15:38:32.835Z,5.80
2023-05-13T15:39:32.811Z,4.30
2023-05-13T15:40:32.795Z,4.90
2023-05-13T15:41:32.782Z,4.60
2023-05-13T15:42:32.775Z,2.40
2023-05-13T15:43:32.773Z,4.90
2023-05-13T15:44:32.749Z,7.50
2023-05-13T15:45:32.726Z,4.50
2023-05-13T15:46:32.799Z,3.90
2023-05-13T15:47:32.752Z,6.60
2023-05-13T15:48:32.782Z,3.20
2023-05-13T15:49:32.684Z,3.20
2023-05-13T15:50:32.674Z,3.60
2023-05-13T15:51:32.668Z,4.60
2023-05-13T15:52:32.660Z,6.00
2023-05-13T15:53:32.641Z,3.80
2023-05-13T15:54:32.624Z,4.30
2023-05-13T15:55:32.615Z,5.60
2023-05-13T15:56:32.601Z,4.30
2023-05-13T15:57:32.603Z,3.90
2023-05-13T15:58:32.586Z,4.60
2023-05-13T15:59:32.560Z,4.70
2023-05-13T16:00:32.550Z,5.40
2023-05-13T16:01:32.559Z,4.10
2023-05-13T16:02:32.581Z,4.30
2023-05-13T16:03:32.516Z,5.00
2023-05-13T16:04:32.552Z,4.70
2023-05-13T16:05:32.483Z,4.90
2023-05-13T16:06:32.481Z,6.40
2023-05-13T16:07:32.539Z,5.40
2023-05-13T16:08:32.449Z,5.40
2023-05-13T16:09:32.426Z,4.70
2023-05-13T16:10:32.424Z,4.10
2023-05-13T16:11:32.420Z,4.30
2023-05-13T16:12:32.402Z,3.10
2023-05-13T16:13:32.378Z,6.50
2023-05-13T16:14:32.364Z,4.90
2023-05-13T16:15:32.354Z,5.30
2023-05-13T16:16:32.410Z,4.00
2023-05-13T16:17:32.336Z,4.00
2023-05-13T16:18:32.337Z,4.40
2023-05-13T16:19:32.298Z,3.90
2023-05-13T16:20:32.540Z,7.50
2023-05-13T16:21:32.538Z,3.80
2023-05-13T16:22:32.260Z,3.90
2023-05-13T16:23:32.245Z,5.60
2023-05-13T16:24:32.235Z,3.50
2023-05-13T16:25:32.239Z,6.50
2023-05-13T16:26:32.236Z,6.60
2023-05-13T16:27:32.200Z,5.70
2023-05-13T16:28:32.189Z,4.50
2023-05-13T16:29:32.177Z,6.10
2023-05-13T16:30:32.185Z,5.70
2023-05-13T16:31:32.234Z,4.50
2023-05-13T16:32:32.206Z,5.40
2023-05-13T16:33:32.118Z,6.20
2023-05-13T16:34:32.124Z,4.50
2023-05-13T16:35:32.116Z,3.40
2023-05-13T16:36:32.087Z,4.80
2023-05-13T16:37:32.064Z,3.70
2023-05-13T16:38:32.066Z,4.20
2023-05-13T16:39:32.083Z,7.70
2023-05-13T16:40:32.041Z,5.10
2023-05-13T16:41:32.019Z,4.00
2023-05-13T16:42:32.042Z,4.10
2023-05-13T16:43:31.991Z,6.20
2023-05-13T16:44:31.996Z,6.00
2023-05-13T16:45:32.130Z,5.70
2023-05-13T16:46:31.960Z,7.00
2023-05-13T16:47:31.949Z,5.60
2023-05-13T16:48:32.170Z,6.60
2023-05-13T16:49:31.925Z,4.10
2023-05-13T16:50:31.907Z,5.00
2023-05-13T16:51:31.905Z,8.00
2023-05-13T16:52:31.979Z,3.90
2023-05-13T16:53:31.880Z,5.70
2023-05-13T16:54:31.860Z,4.90
2023-05-13T16:55:31.850Z,3.70
2023-05-13T16:56:31.829Z,5.30
2023-05-13T16:57:31.819Z,4.30
2023-05-13T16:58:31.804Z,7.90
2023-05-13T16:59:31.799Z,6.70
2023-05-13T17:00:31.780Z,5.20
2023-05-13T17:01:31.804Z,5.10
2023-05-13T17:02:31.806Z,5.70
2023-05-13T17:03:31.794Z,5.20
2023-05-13T17:04:31.736Z,4.90
2023-05-13T17:05:31.707Z,3.90
2023-05-13T17:06:31.699Z,5.50
2023-05-13T17:07:31.704Z,5.00
2023-05-13T17:08:31.704Z,5.90
2023-05-13T17:09:31.651Z,4.90
2023-05-13T17:10:31.656Z,7.00
2023-05-13T17:11:31.639Z,4.50
2023-05-13T17:12:31.651Z,5.60
2023-05-13T17:13:31.606Z,6.50
2023-05-13T17:14:31.600Z,6.60
2023-05-13T17:15:31.579Z,3.80
2023-05-13T17:16:31.601Z,6.20
2023-05-13T17:17:31.608Z,4.90
2023-05-13T17:18:31.558Z,4.80
2023-05-13T17:19:31.530Z,4.10
2023-05-13T17:20:31.526Z,4.10
2023-05-13T17:21:31.513Z,5.30
2023-05-13T17:22:31.502Z,5.40
2023-05-13T17:23:31.481Z,4.00
2023-05-13T17:24:31.473Z,3.00
2023-05-13T17:25:31.457Z,5.00
2023-05-13T17:26:31.499Z,6.40
2023-05-13T17:27:31.427Z,3.60
2023-05-13T17:28:31.418Z,6.40
2023-05-13T17:29:31.417Z,4.50